createdAt,value
2022-10-26T00:01:04.169Z,73.22
2022-10-26T00:03:30.939Z,73.30
2022-10-26T00:06:03.895Z,73.67
2022-10-26T00:08:30.565Z,73.01
2022-10-26T00:11:00.395Z,72.76
2022-10-26T00:13:27.582Z,72.78
2022-10-26T00:15:54.897Z,72.82
2022-10-26T00:18:22.125Z,72.89
2022-10-26T00:20:48.853Z,72.93
2022-10-26T00:23:15.637Z,73.05
2022-10-26T00:25:42.303Z,73.46
2022-10-26T00:28:08.996Z,73.36
2022-10-26T00:30:39.524Z,73.07
2022-10-26T00:33:06.177Z,73.15
2022-10-26T00:35:45.571Z,72.71
2022-10-26T00:38:12.856Z,73.02
2022-10-26T00:40:39.656Z,72.87
2022-10-26T00:43:37.127Z,72.96
2022-10-26T00:46:06.025Z,73.12
2022-10-26T00:48:36.322Z,73.39
2022-10-26T00:51:06.673Z,73.34
2022-10-26T00:53:33.448Z,73.38
2022-10-26T00:56:00.598Z,73.12
2022-10-26T00:58:27.336Z,73.18
2022-10-26T01:00:54.705Z,72.89
2022-10-26T01:03:25.460Z,72.88
2022-10-26T01:05:53.220Z,73.00
2022-10-26T01:08:20.035Z,73.26
2022-10-26T01:10:46.972Z,73.45
2022-10-26T01:13:14.736Z,73.57
2022-10-26T01:15:53.537Z,73.37
2022-10-26T01:18:28.640Z,73.00
2022-10-26T01:21:34.110Z,72.93
2022-10-26T01:24:09.800Z,73.08
2022-10-26T01:27:01.833Z,73.25
2022-10-26T01:29:47.495Z,73.27
2022-10-26T01:32:33.211Z,73.34
2022-10-26T01:35:18.224Z,73.40
2022-10-26T01:38:10.742Z,73.44
2022-10-26T01:40:42.090Z,72.91
2022-10-26T01:43:10.902Z,72.69
2022-10-26T01:45:40.342Z,73.05
2022-10-26T01:48:08.323Z,73.26
2022-10-26T01:50:35.728Z,73.24
2022-10-26T01:53:02.357Z,73.32
2022-10-26T01:55:42.015Z,73.19
2022-10-26T01:59:04.438Z,73.41
2022-10-26T02:01:49.034Z,73.14
2022-10-26T02:04:15.938Z,73.24
2022-10-26T02:06:42.594Z,73.03
2022-10-26T02:09:20.547Z,73.00
2022-10-26T02:11:48.919Z,73.10
2022-10-26T02:14:24.387Z,73.22
2022-10-26T02:16:56.338Z,73.46
2022-10-26T02:19:33.988Z,73.51
2022-10-26T02:22:12.695Z,73.18
2022-10-26T02:24:40.043Z,73.32
2022-10-26T02:27:08.719Z,73.09
2022-10-26T02:29:36.186Z,73.13
2022-10-26T02:32:03.781Z,73.10
2022-10-26T02:34:31.191Z,73.06
2022-10-26T02:37:00.693Z,72.64
2022-10-26T02:39:32.576Z,72.90
2022-10-26T02:42:02.704Z,72.82
2022-10-26T02:44:31.791Z,72.77
2022-10-26T02:46:58.773Z,72.57
2022-10-26T02:49:25.582Z,72.29
2022-10-26T02:52:07.272Z,72.49
2022-10-26T02:54:42.591Z,72.53
2022-10-26T02:57:14.958Z,72.70
2022-10-26T02:59:43.555Z,72.81
2022-10-26T03:02:11.351Z,72.59
2022-10-26T03:04:38.033Z,73.04
2022-10-26T03:07:04.660Z,73.22
2022-10-26T03:09:31.336Z,73.19
2022-10-26T03:11:58.026Z,73.15
2022-10-26T03:14:24.811Z,73.23
2022-10-26T03:19:38.094Z,73.08
2022-10-26T03:22:04.761Z,73.51
2022-10-26T03:24:31.461Z,73.56
2022-10-26T03:27:01.131Z,73.51
2022-10-26T03:29:28.969Z,73.87
2022-10-26T03:31:55.641Z,73.93
2022-10-26T03:34:22.299Z,73.86
2022-10-26T03:36:49.182Z,73.71
2022-10-26T03:39:15.864Z,73.63
2022-10-26T03:41:42.730Z,73.87
2022-10-26T03:44:09.419Z,73.94
2022-10-26T03:46:36.120Z,73.60
2022-10-26T03:49:02.753Z,73.82
2022-10-26T03:51:29.397Z,73.90
2022-10-26T03:53:56.227Z,73.92
2022-10-26T03:56:23.031Z,73.92
2022-10-26T03:58:49.777Z,73.76
2022-10-26T04:01:16.503Z,74.09
2022-10-26T04:03:43.186Z,73.66
2022-10-26T04:06:09.834Z,73.64
2022-10-26T04:08:36.499Z,73.65
2022-10-26T04:11:04.682Z,73.70
2022-10-26T04:13:31.881Z,73.59
2022-10-26T04:15:58.693Z,73.55
2022-10-26T04:18:25.438Z,73.61
2022-10-26T04:20:52.115Z,73.68
2022-10-26T04:23:19.931Z,73.75
2022-10-26T04:25:46.702Z,73.57
2022-10-26T04:28:14.167Z,73.94
2022-10-26T04:30:41.048Z,73.78
2022-10-26T04:33:07.971Z,73.93
2022-10-26T04:35:35.225Z,74.08
2022-10-26T04:38:04.375Z,74.45
2022-10-26T04:40:32.204Z,74.41
2022-10-26T04:42:58.863Z,74.49
2022-10-26T04:45:28.237Z,74.50
2022-10-26T04:48:05.780Z,74.38
2022-10-26T04:50:32.645Z,74.54
2022-10-26T04:52:59.457Z,74.42
2022-10-26T04:55:26.137Z,74.71
2022-10-26T04:57:55.963Z,74.59
2022-10-26T05:00:25.327Z,74.60
2022-10-26T05:02:52.049Z,74.89
2022-10-26T05:05:18.978Z,75.07
2022-10-26T05:07:54.058Z,74.86
2022-10-26T05:10:20.670Z,75.15
2022-10-26T05:12:54.303Z,74.92
2022-10-26T05:15:21.095Z,74.96
2022-10-26T05:17:48.325Z,75.24
2022-10-26T05:20:15.409Z,75.06
2022-10-26T05:22:42.123Z,74.95
2022-10-26T05:25:09.184Z,75.04
2022-10-26T05:27:35.860Z,75.15
2022-10-26T05:30:02.631Z,75.20
2022-10-26T05:32:29.407Z,75.29
2022-10-26T05:34:56.192Z,75.24
2022-10-26T05:37:22.882Z,75.34
2022-10-26T05:39:49.540Z,75.30
2022-10-26T05:42:16.264Z,74.93
2022-10-26T05:44:42.942Z,75.13
2022-10-26T05:47:09.617Z,75.16
2022-10-26T05:49:36.279Z,75.26
2022-10-26T05:52:02.953Z,75.24
2022-10-26T05:54:29.745Z,75.50
2022-10-26T05:56:56.694Z,75.26
2022-10-26T05:59:23.597Z,75.26
2022-10-26T06:02:08.697Z,74.94
2022-10-26T06:04:43.466Z,75.11
2022-10-26T06:07:18.014Z,75.01
2022-10-26T06:09:45.156Z,74.98
2022-10-26T06:12:14.487Z,74.70
2022-10-26T06:14:43.954Z,74.76
2022-10-26T06:17:19.878Z,74.61
2022-10-26T06:23:16.598Z,74.50
2022-10-26T06:25:56.191Z,74.68
2022-10-26T06:28:22.958Z,74.41
2022-10-26T06:30:49.779Z,74.36
2022-10-26T06:33:30.946Z,74.23
2022-10-26T06:36:06.106Z,74.44
2022-10-26T06:38:34.892Z,74.61
2022-10-26T06:41:01.926Z,74.50
2022-10-26T06:43:33.087Z,74.48
2022-10-26T06:46:23.961Z,74.53
2022-10-26T06:49:19.374Z,74.47
2022-10-26T06:51:56.674Z,74.69
2022-10-26T06:54:53.450Z,74.76
2022-10-26T06:57:23.396Z,74.96
2022-10-26T06:59:53.021Z,74.95
2022-10-26T07:02:20.845Z,74.93
2022-10-26T07:04:48.191Z,75.34
2022-10-26T07:07:21.745Z,75.63
2022-10-26T07:09:48.778Z,75.58
2022-10-26T07:12:15.655Z,76.10
2022-10-26T07:14:42.876Z,76.29
2022-10-26T07:17:11.168Z,76.39
2022-10-26T07:19:38.026Z,76.67
2022-10-26T07:22:05.832Z,76.91
2022-10-26T07:24:32.588Z,76.83
2022-10-26T07:26:59.695Z,77.15
2022-10-26T07:29:27.386Z,77.33
2022-10-26T07:31:55.228Z,77.42
2022-10-26T07:34:22.879Z,78.39
2022-10-26T07:36:52.228Z,79.20
2022-10-26T07:39:19.251Z,79.11
2022-10-26T07:41:48.002Z,79.15
2022-10-26T07:44:14.666Z,79.20
2022-10-26T07:46:41.390Z,79.42
2022-10-26T07:49:08.113Z,79.65
2022-10-26T07:51:36.014Z,79.62
2022-10-26T07:54:02.933Z,79.51
2022-10-26T07:56:30.886Z,79.58
2022-10-26T07:58:58.681Z,80.02
2022-10-26T08:01:26.766Z,81.30
2022-10-26T08:03:55.463Z,82.38
2022-10-26T08:06:22.710Z,83.43
2022-10-26T08:08:53.126Z,83.91
2022-10-26T08:11:20.307Z,85.85
2022-10-26T08:13:47.181Z,85.76
2022-10-26T08:16:16.428Z,85.05
2022-10-26T08:18:44.227Z,84.06
2022-10-26T08:21:21.692Z,83.79
2022-10-26T08:23:57.135Z,83.19
2022-10-26T08:26:25.241Z,81.82
2022-10-26T08:28:52.698Z,79.98
2022-10-26T08:31:20.844Z,78.76
2022-10-26T08:33:48.265Z,78.43
2022-10-26T08:36:24.195Z,76.54
2022-10-26T08:38:51.459Z,77.74
2022-10-26T08:41:34.239Z,76.11
2022-10-26T08:44:10.485Z,75.33
2022-10-26T08:46:42.652Z,74.55
2022-10-26T08:49:21.354Z,74.60
2022-10-26T08:51:50.982Z,74.25
2022-10-26T08:54:41.436Z,73.97
2022-10-26T08:57:36.053Z,73.22
2022-10-26T09:00:08.354Z,72.88
2022-10-26T09:02:35.594Z,71.42
2022-10-26T09:05:02.441Z,70.17
2022-10-26T09:07:57.261Z,70.33
2022-10-26T09:10:42.404Z,68.03
2022-10-26T09:13:19.806Z,67.33
2022-10-26T09:15:50.325Z,66.08
2022-10-26T09:18:33.616Z,65.02
2022-10-26T09:21:31.238Z,64.27
2022-10-26T09:24:26.954Z,62.34
2022-10-26T09:27:16.423Z,61.70
2022-10-26T09:29:45.123Z,61.47
2022-10-26T09:32:19.798Z,60.55
2022-10-26T09:34:55.516Z,60.01
2022-10-26T09:37:37.578Z,60.48
2022-10-26T09:40:16.625Z,60.67
2022-10-26T09:42:59.517Z,59.32
2022-10-26T09:45:33.891Z,57.59
2022-10-26T09:48:11.596Z,57.82
2022-10-26T09:50:40.622Z,58.09
2022-10-26T09:53:07.304Z,56.73
2022-10-26T09:55:39.657Z,56.35
2022-10-26T09:58:15.656Z,56.09
2022-10-26T10:00:44.528Z,55.86
2022-10-26T10:03:28.943Z,56.10
2022-10-26T10:06:19.719Z,55.53
2022-10-26T10:09:11.575Z,55.09
2022-10-26T10:11:46.128Z,56.10
2022-10-26T10:14:17.963Z,53.68
2022-10-26T10:17:01.695Z,54.03
2022-10-26T10:19:30.575Z,53.18
2022-10-26T10:22:02.849Z,52.24
2022-10-26T10:24:32.937Z,52.29
2022-10-26T10:27:05.589Z,53.75
2022-10-26T10:29:34.634Z,53.77
2022-10-26T10:32:03.341Z,52.92
2022-10-26T10:34:37.650Z,52.14
2022-10-26T10:37:05.498Z,51.32
2022-10-26T10:39:35.446Z,51.76
2022-10-26T10:42:04.715Z,52.03
2022-10-26T10:44:34.044Z,52.53
2022-10-26T10:47:04.940Z,52.75
2022-10-26T10:49:36.372Z,53.43
2022-10-26T10:52:04.590Z,50.55
2022-10-26T10:54:33.973Z,50.64
2022-10-26T10:57:18.677Z,51.15
2022-10-26T10:59:51.951Z,51.19
2022-10-26T11:02:43.787Z,51.27
2022-10-26T11:05:23.343Z,52.50
2022-10-26T11:07:56.822Z,51.78
2022-10-26T11:10:28.160Z,52.45
2022-10-26T11:13:06.964Z,53.51
2022-10-26T11:15:39.431Z,52.91
2022-10-26T11:18:09.801Z,52.05
2022-10-26T11:20:42.405Z,54.54
2022-10-26T11:23:13.845Z,53.61
2022-10-26T11:25:59.206Z,53.22
2022-10-26T11:28:41.345Z,53.23
2022-10-26T11:31:16.630Z,54.92
2022-10-26T11:34:12.521Z,53.96
2022-10-26T11:36:42.920Z,54.40
2022-10-26T11:39:44.082Z,55.78
2022-10-26T11:42:22.232Z,56.17
2022-10-26T11:45:10.578Z,55.39
2022-10-26T11:48:17.467Z,55.79
2022-10-26T11:50:47.401Z,56.32
2022-10-26T11:53:18.835Z,56.66
2022-10-26T11:55:53.457Z,57.06
2022-10-26T11:58:28.839Z,57.24
2022-10-26T12:00:59.137Z,57.98
2022-10-26T12:03:28.330Z,57.80
2022-10-26T12:05:55.107Z,58.00
2022-10-26T12:08:31.299Z,57.92
2022-10-26T12:11:09.976Z,57.54
2022-10-26T12:13:44.271Z,58.42
2022-10-26T12:16:35.948Z,57.47
2022-10-26T12:19:09.075Z,57.95
2022-10-26T12:21:36.770Z,58.21
2022-10-26T12:24:22.269Z,58.42
2022-10-26T12:27:31.003Z,58.62
2022-10-26T12:30:18.954Z,58.72
2022-10-26T12:32:48.649Z,59.55
2022-10-26T12:35:44.911Z,59.93
2022-10-26T12:38:27.964Z,59.65
2022-10-26T12:41:07.576Z,59.61
2022-10-26T12:43:40.541Z,59.83
2022-10-26T12:46:13.337Z,59.70
2022-10-26T12:48:45.850Z,59.13
2022-10-26T12:54:04.129Z,60.01
2022-10-26T12:56:37.367Z,59.81
2022-10-26T12:59:32.890Z,60.46
2022-10-26T13:02:37.186Z,59.17
2022-10-26T13:05:25.697Z,57.83
2022-10-26T13:07:52.795Z,58.71
2022-10-26T13:10:24.842Z,58.25
2022-10-26T13:12:54.118Z,57.81
2022-10-26T13:15:36.592Z,57.24
2022-10-26T13:18:10.215Z,57.47
2022-10-26T13:20:38.376Z,57.33
2022-10-26T13:23:16.639Z,57.64
2022-10-26T13:26:02.536Z,58.23
2022-10-26T13:28:34.275Z,57.57
2022-10-26T13:31:01.084Z,57.01
2022-10-26T13:33:35.451Z,57.59
2022-10-26T13:36:14.022Z,57.37
2022-10-26T13:38:40.835Z,57.65
2022-10-26T13:41:15.560Z,57.91
2022-10-26T13:43:43.274Z,57.73
2022-10-26T13:46:23.599Z,57.90
2022-10-26T13:48:50.490Z,58.25
2022-10-26T13:51:25.200Z,58.06
2022-10-26T13:54:00.559Z,58.53
2022-10-26T13:56:34.140Z,59.01
2022-10-26T13:59:03.538Z,59.60
2022-10-26T14:01:34.861Z,59.00
2022-10-26T14:04:25.790Z,58.67
2022-10-26T14:06:53.396Z,58.39
2022-10-26T14:09:21.017Z,59.39
2022-10-26T14:11:58.390Z,59.74
2022-10-26T14:14:27.789Z,59.30
2022-10-26T14:16:54.603Z,59.31
2022-10-26T14:19:31.034Z,60.02
2022-10-26T14:21:58.310Z,59.99
2022-10-26T14:24:45.853Z,61.17
2022-10-26T14:27:44.829Z,60.11
2022-10-26T14:30:30.423Z,60.98
2022-10-26T14:32:58.041Z,60.88
2022-10-26T14:35:29.810Z,61.75
2022-10-26T14:38:07.700Z,62.09
2022-10-26T14:40:37.751Z,62.38
2022-10-26T14:43:05.762Z,62.86
2022-10-26T14:45:53.080Z,63.40
2022-10-26T14:48:34.499Z,63.56
2022-10-26T14:51:17.837Z,63.39
2022-10-26T14:53:50.328Z,64.08
2022-10-26T14:56:24.497Z,64.10
2022-10-26T14:58:51.805Z,64.91
2022-10-26T15:01:33.170Z,64.99
2022-10-26T15:04:05.838Z,65.49
2022-10-26T15:06:40.180Z,66.01
2022-10-26T15:09:19.244Z,66.27
2022-10-26T15:11:49.774Z,66.90
2022-10-26T15:14:18.956Z,67.10
2022-10-26T15:16:56.081Z,67.41
2022-10-26T15:19:26.302Z,67.85
2022-10-26T15:21:56.213Z,68.16
2022-10-26T15:24:34.471Z,68.08
2022-10-26T15:27:19.399Z,68.19
2022-10-26T15:29:51.292Z,68.58
2022-10-26T15:32:31.824Z,68.65
2022-10-26T15:35:27.799Z,68.71
2022-10-26T15:37:55.830Z,68.45
2022-10-26T15:42:54.143Z,68.72
2022-10-26T15:45:30.109Z,68.70
2022-10-26T15:47:58.039Z,68.57
2022-10-26T15:50:27.796Z,68.59
2022-10-26T15:53:09.292Z,68.56
2022-10-26T15:55:38.067Z,68.80
2022-10-26T15:58:04.910Z,68.82
2022-10-26T16:00:32.383Z,68.94
2022-10-26T16:03:00.030Z,69.16
2022-10-26T16:05:28.001Z,69.27
2022-10-26T16:07:54.853Z,69.05
2022-10-26T16:10:25.433Z,69.15
2022-10-26T16:12:53.237Z,69.47
2022-10-26T16:15:25.917Z,69.54
2022-10-26T16:17:54.838Z,69.50
2022-10-26T16:20:24.519Z,69.69
2022-10-26T16:22:52.649Z,69.95
2022-10-26T16:25:25.697Z,70.34
2022-10-26T16:27:55.294Z,69.96
2022-10-26T16:30:24.844Z,70.19
2022-10-26T16:32:56.497Z,70.40
2022-10-26T16:35:23.214Z,70.58
2022-10-26T16:37:51.189Z,70.85
2022-10-26T16:40:18.594Z,70.74
2022-10-26T16:42:48.519Z,70.64
2022-10-26T16:45:17.844Z,70.92
2022-10-26T16:47:44.587Z,71.06
2022-10-26T16:50:12.707Z,71.31
2022-10-26T16:52:43.606Z,71.62
2022-10-26T16:55:10.425Z,71.71
2022-10-26T16:57:37.729Z,71.93
2022-10-26T17:00:06.677Z,72.11
2022-10-26T17:02:34.874Z,72.23
2022-10-26T17:05:04.371Z,72.67
2022-10-26T17:07:33.855Z,72.54
2022-10-26T17:10:00.636Z,72.98
2022-10-26T17:15:17.275Z,72.58
2022-10-26T17:17:46.671Z,73.04
2022-10-26T17:20:13.923Z,73.17
2022-10-26T17:22:40.779Z,73.08
2022-10-26T17:25:07.793Z,73.15
2022-10-26T17:27:34.465Z,72.92
2022-10-26T17:30:02.810Z,73.39
2022-10-26T17:32:30.921Z,73.09
2022-10-26T17:34:57.583Z,73.36
2022-10-26T17:37:24.348Z,73.44
2022-10-26T17:39:52.149Z,73.59
2022-10-26T17:42:18.999Z,73.71
2022-10-26T17:44:47.600Z,73.86
2022-10-26T17:47:14.288Z,73.68
2022-10-26T17:49:40.976Z,73.54
2022-10-26T17:52:07.920Z,73.74
2022-10-26T17:54:34.857Z,73.81
2022-10-26T17:57:01.594Z,74.04
2022-10-26T17:59:28.870Z,73.93
2022-10-26T18:01:55.729Z,73.89
2022-10-26T18:04:23.361Z,74.17
2022-10-26T18:06:50.075Z,74.41
2022-10-26T18:09:17.555Z,73.93
2022-10-26T18:11:44.199Z,74.24
2022-10-26T18:14:12.080Z,74.31
2022-10-26T18:16:40.895Z,74.41
2022-10-26T18:19:07.676Z,74.29
2022-10-26T18:21:37.812Z,74.25
2022-10-26T18:24:07.701Z,74.25
2022-10-26T18:26:35.123Z,74.36
2022-10-26T18:29:02.303Z,74.22
2022-10-26T18:31:30.849Z,74.54
2022-10-26T18:34:03.266Z,74.45
2022-10-26T18:36:31.168Z,74.33
2022-10-26T18:38:58.473Z,74.39
2022-10-26T18:41:26.095Z,74.40
2022-10-26T18:43:55.146Z,74.56
2022-10-26T18:46:24.722Z,74.44
2022-10-26T18:48:52.147Z,74.39
2022-10-26T18:51:21.171Z,74.38
2022-10-26T18:53:50.913Z,74.30
2022-10-26T18:56:19.580Z,74.61
2022-10-26T18:58:49.536Z,74.40
2022-10-26T19:01:23.212Z,74.32
2022-10-26T19:03:59.385Z,73.98
2022-10-26T19:06:29.710Z,73.90
2022-10-26T19:08:56.829Z,73.86
2022-10-26T19:11:25.478Z,73.49
2022-10-26T19:13:54.112Z,73.48
2022-10-26T19:16:43.980Z,73.63
2022-10-26T19:19:10.966Z,73.46
2022-10-26T19:21:38.901Z,73.15
2022-10-26T19:24:13.073Z,72.80
2022-10-26T19:26:43.450Z,72.88
2022-10-26T19:29:16.570Z,73.00
2022-10-26T19:31:46.402Z,73.00
2022-10-26T19:34:14.265Z,72.62
2022-10-26T19:36:44.932Z,72.94
2022-10-26T19:39:14.233Z,72.41
2022-10-26T19:41:40.922Z,72.53
2022-10-26T19:44:08.057Z,72.59
2022-10-26T19:46:34.877Z,72.50
2022-10-26T19:49:02.640Z,72.58
2022-10-26T19:51:31.028Z,72.28
2022-10-26T19:54:03.185Z,72.36
2022-10-26T19:56:36.839Z,72.50
2022-10-26T19:59:04.288Z,72.13
2022-10-26T20:01:31.104Z,72.48
2022-10-26T20:03:58.572Z,72.45
2022-10-26T20:06:25.258Z,72.23
2022-10-26T20:08:53.199Z,72.37
2022-10-26T20:11:20.183Z,72.13
2022-10-26T20:13:48.085Z,72.38
2022-10-26T20:16:17.013Z,72.30
2022-10-26T20:18:47.715Z,72.20
2022-10-26T20:21:17.085Z,72.30
2022-10-26T20:23:44.716Z,72.51
2022-10-26T20:26:18.650Z,72.51
2022-10-26T20:28:49.254Z,72.46
2022-10-26T20:31:17.220Z,72.61
2022-10-26T20:33:44.065Z,72.59
2022-10-26T20:36:11.516Z,72.43
2022-10-26T20:38:39.622Z,72.23
2022-10-26T20:41:10.290Z,72.11
2022-10-26T20:43:41.297Z,72.13
2022-10-26T20:46:22.643Z,72.29
2022-10-26T20:48:50.537Z,72.23
2022-10-26T20:52:15.275Z,72.23
2022-10-26T20:55:00.118Z,72.08
2022-10-26T20:57:30.651Z,72.16
2022-10-26T21:00:06.037Z,72.23
2022-10-26T21:02:34.104Z,72.13
2022-10-26T21:05:02.514Z,72.17
2022-10-26T21:07:29.202Z,72.23
2022-10-26T21:09:56.092Z,72.29
2022-10-26T21:12:22.807Z,72.14
2022-10-26T21:14:51.560Z,72.22
2022-10-26T21:17:18.242Z,72.26
2022-10-26T21:19:46.109Z,72.24
2022-10-26T21:22:13.940Z,72.27
2022-10-26T21:24:40.582Z,72.28
2022-10-26T21:27:07.281Z,72.06
2022-10-26T21:29:33.961Z,72.26
2022-10-26T21:32:00.712Z,72.25
2022-10-26T21:34:27.400Z,72.00
2022-10-26T21:36:54.313Z,72.35
2022-10-26T21:39:21.211Z,72.35
2022-10-26T21:41:47.874Z,72.19
2022-10-26T21:44:42.209Z,72.23
2022-10-26T21:47:01.730Z,72.11
2022-10-26T21:49:28.457Z,72.19
2022-10-26T21:51:56.905Z,72.10
2022-10-26T21:54:24.255Z,72.12
2022-10-26T21:56:50.948Z,71.97
2022-10-26T21:59:17.607Z,72.25
2022-10-26T22:01:44.385Z,72.22
2022-10-26T22:04:11.665Z,72.23
2022-10-26T22:06:38.607Z,72.35
2022-10-26T22:09:05.378Z,72.33
2022-10-26T22:11:33.898Z,72.36
2022-10-26T22:14:00.704Z,72.05
2022-10-26T22:16:29.809Z,72.45
2022-10-26T22:18:58.514Z,72.41
2022-10-26T22:21:26.961Z,72.21
2022-10-26T22:23:54.464Z,72.40
2022-10-26T22:26:23.015Z,72.37
2022-10-26T22:28:52.156Z,72.21
2022-10-26T22:31:24.503Z,72.24
2022-10-26T22:34:02.065Z,72.26
2022-10-26T22:36:32.002Z,72.22
2022-10-26T22:38:58.690Z,72.25
2022-10-26T22:41:25.492Z,72.28
2022-10-26T22:43:52.367Z,72.31
2022-10-26T22:46:25.094Z,72.51
2022-10-26T22:48:57.680Z,72.43
2022-10-26T22:51:25.847Z,72.66
2022-10-26T22:53:57.657Z,72.71
2022-10-26T22:58:53.577Z,72.48
2022-10-26T23:01:23.259Z,72.21
2022-10-26T23:03:50.012Z,72.28
2022-10-26T23:06:18.299Z,72.41
2022-10-26T23:08:45.480Z,72.35
2022-10-26T23:11:17.251Z,72.63
2022-10-26T23:13:44.354Z,72.54
2022-10-26T23:16:13.578Z,72.30
2022-10-26T23:18:40.768Z,72.39
2022-10-26T23:21:08.935Z,71.97
2022-10-26T23:23:36.013Z,72.18
2022-10-26T23:26:08.774Z,71.98
2022-10-26T23:28:35.899Z,71.93
2022-10-26T23:31:02.592Z,72.21
2022-10-26T23:33:29.484Z,72.38
2022-10-26T23:35:57.513Z,72.38
2022-10-26T23:38:25.010Z,72.37
2022-10-26T23:40:53.155Z,72.59
2022-10-26T23:43:20.160Z,72.63
2022-10-26T23:45:47.255Z,72.33
2022-10-26T23:48:14.226Z,72.54
2022-10-26T23:50:44.658Z,72.60
2022-10-26T23:53:12.389Z,72.48
2022-10-26T23:55:39.327Z,72.43
2022-10-26T23:58:06.235Z,72.52
